Time;durP1;ratioP1;P1;durP2;ratioP2;P2;SDS_P1;SDS_P2;PMS_P1;PMS_P2;Temp;Humidity;BMP_temperature;BMP_pressure;BME280_temperature;BME280_humidity;BME280_pressure;Samples;Min_cycle;Max_cycle;Signal;HPM_P1;HPM_P2
2023/09/29 00:01:06;;;;;;;15.35;8.10;;;;;;;-145.68;84.22;73691.69;10371324;28;20194;-74
2023/09/29 00:06:07;;;;;;;13.00;8.07;;;;;;;-145.68;84.67;73693.69;10371891;28;20207;-74
2023/09/29 00:11:08;;;;;;;11.82;7.93;;;;;;;-145.68;85.19;73705.69;10370599;28;20283;-74
2023/09/29 00:16:08;;;;;;;12.48;7.82;;;;;;;-145.68;84.96;73699.69;10370475;28;20201;-74
2023/09/29 00:21:09;;;;;;;10.55;8.00;;;;;;;-145.68;85.13;73701.69;10371626;28;20660;-75
2023/09/29 00:26:09;;;;;;;10.55;7.63;;;;;;;-145.68;85.02;73699.69;10369853;28;20200;-74
2023/09/29 00:31:10;;;;;;;12.73;8.05;;;;;;;-145.68;85.60;73701.69;10370379;28;20217;-74
2023/09/29 00:36:11;;;;;;;12.40;8.30;;;;;;;-145.68;86.05;73705.69;10334928;28;20645;-74
2023/09/29 00:41:11;;;;;;;11.63;7.00;;;;;;;-145.68;86.01;73711.66;10370560;28;20193;-74
2023/09/29 00:46:12;;;;;;;10.75;7.05;;;;;;;-145.68;86.54;73717.66;10351265;28;20197;-74
2023/09/29 00:51:13;;;;;;;12.98;7.60;;;;;;;-145.68;87.26;73727.66;10388216;28;20231;-74
2023/09/29 00:56:14;;;;;;;12.48;7.95;;;;;;;-145.68;87.63;73727.66;10391372;28;20199;-74
2023/09/29 01:01:19;;;;;;;9.38;7.32;;;;;;;-145.68;88.20;73735.66;10389708;28;20189;-75
2023/09/29 01:06:19;;;;;;;11.70;7.13;;;;;;;-145.68;88.27;73727.66;10390120;28;20181;-74
2023/09/29 01:11:21;;;;;;;10.18;7.47;;;;;;;-145.68;89.10;73741.66;10391264;28;20216;-74
2023/09/29 01:16:21;;;;;;;9.63;7.22;;;;;;;-145.68;89.21;73741.66;10390699;28;20195;-74
2023/09/29 01:21:21;;;;;;;9.13;6.57;;;;;;;-145.68;90.05;73735.66;10408254;28;20188;-74
2023/09/29 01:26:22;;;;;;;13.00;6.93;;;;;;;-145.68;89.99;73735.66;10408309;28;20223;-74
2023/09/29 01:31:24;;;;;;;9.13;6.70;;;;;;;-145.68;91.42;73755.66;10390118;28;20224;-74
2023/09/29 01:36:25;;;;;;;10.82;7.07;;;;;;;-145.68;94.01;73781.63;10407519;28;20607;-74
2023/09/29 01:41:25;;;;;;;7.85;7.03;;;;;;;-145.68;94.78;73779.63;10390230;28;20552;-74
2023/09/29 01:46:25;;;;;;;9.50;6.63;;;;;;;-145.68;94.50;73771.63;10407077;28;20203;-74
2023/09/29 01:51:29;;;;;;;8.70;6.95;;;;;;;-145.68;94.14;73771.63;10390315;28;20256;-74
2023/09/29 01:56:31;;;;;;;8.00;6.95;;;;;;;-145.68;94.10;73779.63;10388586;28;20192;-74
2023/09/29 02:01:35;;;;;;;7.20;6.22;;;;;;;-145.68;93.99;73773.63;10389354;28;20543;-74
2023/09/29 02:06:37;;;;;;;8.23;6.35;;;;;;;-145.68;94.17;73769.63;10405060;28;20275;-74
2023/09/29 02:11:40;;;;;;;11.15;6.97;;;;;;;-145.68;94.91;73777.63;10388484;28;20209;-74
2023/09/29 02:16:41;;;;;;;7.53;6.00;;;;;;;-145.68;95.94;73779.63;10387814;28;20195;-74
2023/09/29 02:21:43;;;;;;;7.95;5.95;;;;;;;-145.68;96.48;73791.63;10387691;28;20251;-74
2023/09/29 02:26:44;;;;;;;8.18;6.25;;;;;;;-145.68;98.18;73799.63;10405057;28;20192;-74
2023/09/29 02:31:45;;;;;;;9.65;6.13;;;;;;;-145.68;97.87;73787.63;10404838;28;20285;-74
2023/09/29 02:36:45;;;;;;;7.80;5.85;;;;;;;-145.68;98.38;73803.63;10405270;28;20196;-74
2023/09/29 02:41:46;;;;;;;9.90;6.68;;;;;;;-145.68;99.24;73799.63;10405869;28;20255;-74
2023/09/29 02:46:47;;;;;;;9.82;6.75;;;;;;;-145.68;99.55;73799.63;10408090;28;20695;-74
2023/09/29 02:51:47;;;;;;;8.50;6.72;;;;;;;-145.68;100.00;73809.63;10428726;28;20542;-74
2023/09/29 02:56:47;;;;;;;11.15;6.68;;;;;;;-145.68;100.00;73815.63;10428873;28;20192;-74
2023/09/29 03:01:49;;;;;;;8.07;6.15;;;;;;;-145.68;99.91;73789.63;10445834;28;20188;-74
2023/09/29 03:06:51;;;;;;;12.05;6.45;;;;;;;-145.68;98.14;73775.63;10427263;28;20265;-74
2023/09/29 03:11:51;;;;;;;11.05;7.13;;;;;;;-145.68;96.63;73773.63;10428258;28;20247;-74
2023/09/29 03:16:53;;;;;;;9.30;6.43;;;;;;;-145.68;97.29;73787.63;10444738;28;20302;-74
2023/09/29 03:21:54;;;;;;;11.18;6.55;;;;;;;-145.68;98.60;73795.63;10427732;28;20235;-74
2023/09/29 03:26:54;;;;;;;11.70;6.65;;;;;;;-145.68;100.00;73809.63;10445729;28;20207;-74
2023/09/29 03:31:54;;;;;;;9.68;7.03;;;;;;;-145.68;100.00;73825.63;10446072;28;20292;-74
2023/09/29 03:36:55;;;;;;;11.30;7.50;;;;;;;-145.68;100.00;73839.59;10445669;28;20790;-74
2023/09/29 03:41:56;;;;;;;16.13;8.50;;;;;;;-145.68;100.00;73823.63;10445874;28;20192;-73
2023/09/29 03:46:56;;;;;;;9.73;7.03;;;;;;;-145.68;100.00;73805.63;10426351;28;20278;-73
2023/09/29 03:51:57;;;;;;;9.15;6.90;;;;;;;-145.68;100.00;73811.63;10445783;28;20215;-74
2023/09/29 03:56:57;;;;;;;13.15;8.23;;;;;;;-145.68;100.00;73807.63;10445293;28;20233;-74
2023/09/29 04:01:58;;;;;;;9.30;7.10;;;;;;;-145.68;100.00;73801.63;10445116;28;20238;-75
2023/09/29 04:06:59;;;;;;;10.55;7.45;;;;;;;-145.68;100.00;73799.63;10445183;28;20245;-74
2023/09/29 04:11:59;;;;;;;10.00;7.47;;;;;;;-145.68;100.00;73793.63;10449307;28;20242;-74
2023/09/29 04:17:00;;;;;;;9.23;7.28;;;;;;;-145.68;100.00;73797.63;10452205;28;20200;-74
2023/09/29 04:22:01;;;;;;;9.55;7.85;;;;;;;-145.68;100.00;73803.63;10454843;28;20195;-74
2023/09/29 04:27:01;;;;;;;9.88;7.97;;;;;;;-145.68;100.00;73799.63;10452268;28;20283;-74
2023/09/29 04:32:02;;;;;;;10.98;7.28;;;;;;;-145.68;100.00;73805.63;10452673;28;20688;-74
2023/09/29 04:37:02;;;;;;;9.95;7.55;;;;;;;-145.68;100.00;73787.63;10451899;28;20198;-73
2023/09/29 04:42:03;;;;;;;9.15;7.40;;;;;;;-145.68;100.00;73787.63;10452270;28;20591;-74
2023/09/29 04:47:04;;;;;;;10.88;7.82;;;;;;;-145.68;100.00;73797.63;10451012;28;20231;-74
2023/09/29 04:52:04;;;;;;;8.45;7.13;;;;;;;-145.68;100.00;73797.63;10451651;28;20216;-74
2023/09/29 04:57:05;;;;;;;10.05;7.60;;;;;;;-145.68;100.00;73817.63;10451331;28;20192;-74
2023/09/29 05:02:05;;;;;;;14.57;7.35;;;;;;;-145.68;100.00;73833.59;10454551;28;20190;-74
2023/09/29 05:07:06;;;;;;;9.70;7.55;;;;;;;-145.68;100.00;73825.63;10451223;28;20194;-74
2023/09/29 05:12:06;;;;;;;12.48;7.25;;;;;;;-145.68;100.00;73819.63;10446648;28;20216;-74
2023/09/29 05:17:07;;;;;;;10.90;7.28;;;;;;;-145.68;100.00;73805.63;10455303;28;20188;-75
2023/09/29 05:22:07;;;;;;;15.27;7.68;;;;;;;-145.68;99.39;73793.63;10440106;28;20192;-74
2023/09/29 05:27:08;;;;;;;9.13;7.15;;;;;;;-145.68;97.34;73771.63;10431997;28;20188;-74
2023/09/29 05:32:08;;;;;;;10.88;6.90;;;;;;;-145.68;94.62;73731.66;10449415;28;20603;-74
2023/09/29 05:37:09;;;;;;;11.30;7.07;;;;;;;-145.68;91.62;73705.69;10448200;28;20244;-73
2023/09/29 05:42:13;;;;;;;12.57;7.25;;;;;;;-145.68;88.66;73691.69;10448792;28;20192;-74
2023/09/29 05:47:13;;;;;;;8.73;5.95;;;;;;;-145.68;85.82;73655.69;10449248;28;20232;-74
2023/09/29 05:52:13;;;;;;;12.23;6.20;;;;;;;-145.68;83.74;73633.72;10447988;28;20215;-73
2023/09/29 05:57:14;;;;;;;9.15;6.72;;;;;;;-145.68;83.54;73645.72;10448037;28;20195;-73
2023/09/29 06:02:14;;;;;;;8.65;6.45;;;;;;;-145.68;84.63;73645.72;10448479;28;20214;-74
2023/09/29 06:07:15;;;;;;;9.48;5.88;;;;;;;-145.68;85.17;73623.72;10452438;28;20196;-74
2023/09/29 06:12:15;;;;;;;6.65;6.00;;;;;;;-145.68;83.97;73579.75;10454280;28;20345;-74
2023/09/29 06:17:15;;;;;;;6.20;5.15;;;;;;;-145.68;79.09;73495.78;10430455;28;20551;-74
2023/09/29 06:22:16;;;;;;;8.25;5.47;;;;;;;-145.68;74.30;73389.88;10460749;28;20191;-74
2023/09/29 06:27:16;;;;;;;9.43;5.55;;;;;;;-145.68;71.45;73377.88;10452994;28;20282;-74
2023/09/29 06:32:17;;;;;;;5.90;4.95;;;;;;;-145.68;67.43;73275.94;10447688;28;20325;-74
2023/09/29 06:37:18;;;;;;;7.43;5.13;;;;;;;-145.68;66.60;73277.94;10443123;28;20196;-74
2023/09/29 06:42:19;;;;;;;7.07;4.40;;;;;;;-145.68;64.88;73223.97;10445795;28;20856;-74
2023/09/29 06:47:20;;;;;;;9.95;4.93;;;;;;;-145.68;62.30;73144.03;10430137;28;20747;-74
2023/09/29 06:52:20;;;;;;;9.35;4.32;;;;;;;-145.68;61.43;73128.03;10446586;28;20219;-74
2023/09/29 06:57:21;;;;;;;5.07;3.83;;;;;;;-145.68;59.97;73064.09;10443351;28;20493;-75
2023/09/29 07:02:21;;;;;;;5.32;4.05;;;;;;;-145.68;57.83;73026.09;10451318;28;20188;-74
2023/09/29 07:07:22;;;;;;;4.55;4.13;;;;;;;-145.68;57.52;73028.09;10445422;28;20257;-75
2023/09/29 07:12:22;;;;;;;7.45;4.10;;;;;;;-145.68;55.43;72928.19;10444837;28;20218;-74
2023/09/29 07:17:22;;;;;;;6.05;3.72;;;;;;;-145.68;54.31;72912.19;10449024;28;20203;-74
2023/09/29 07:22:23;;;;;;;4.30;3.55;;;;;;;-145.68;54.29;72910.19;10446680;28;20200;-74
2023/09/29 07:27:24;;;;;;;4.97;3.60;;;;;;;-145.68;52.70;72848.25;10444959;28;20229;-74
2023/09/29 07:32:28;;;;;;;5.55;4.00;;;;;;;-145.68;51.71;72804.28;10445067;28;20219;-74
2023/09/29 07:37:28;;;;;;;6.03;4.13;;;;;;;-145.68;50.33;72786.28;10431195;28;20187;-74
2023/09/29 07:42:29;;;;;;;4.40;3.25;;;;;;;-145.68;49.58;72720.34;10448957;28;20226;-74
2023/09/29 07:47:29;;;;;;;3.75;2.83;;;;;;;-145.68;47.29;72596.44;10464700;28;20229;-74
2023/09/29 07:52:30;;;;;;;4.90;3.28;;;;;;;-145.68;47.47;72634.41;10477662;28;20219;-74
2023/09/29 07:57:30;;;;;;;5.43;3.10;;;;;;;-145.68;46.79;72592.44;10467252;28;20187;-74
2023/09/29 08:02:30;;;;;;;6.00;3.20;;;;;;;-145.68;45.59;72576.47;10437079;28;20238;-74
2023/09/29 08:07:31;;;;;;;4.40;3.22;;;;;;;-145.68;45.21;72520.50;10455218;28;20196;-74
2023/09/29 08:12:31;;;;;;;6.55;2.90;;;;;;;-145.68;45.13;72468.56;10475583;28;20753;-74
2023/09/29 08:17:32;;;;;;;7.15;3.22;;;;;;;-145.68;43.92;72476.53;10474633;28;20200;-75
2023/09/29 08:22:32;;;;;;;2.50;2.17;;;;;;;-145.68;39.98;72354.66;10470771;28;20184;-73
2023/09/29 08:27:33;;;;;;;3.17;2.35;;;;;;;-145.68;40.45;72368.63;10446392;28;20621;-75
2023/09/29 08:32:36;;;;;;;5.53;2.40;;;;;;;-145.68;39.17;72296.69;10461921;28;20211;-74
2023/09/29 08:37:36;;;;;;;4.25;2.47;;;;;;;-145.68;38.95;72494.53;10476484;28;20192;-74
2023/09/29 08:42:38;;;;;;;4.28;2.17;;;;;;;-145.68;38.22;72298.69;10454641;28;20715;-75
2023/09/29 08:47:40;;;;;;;2.53;1.90;;;;;;;-145.68;36.62;72158.84;10476260;28;20270;-74
2023/09/29 08:52:44;;;;;;;2.83;2.03;;;;;;;-145.68;37.26;72266.72;10461760;28;20223;-75
2023/09/29 08:57:45;;;;;;;4.07;2.25;;;;;;;-145.68;38.36;72358.66;10482199;28;20244;-75
2023/09/29 09:02:45;;;;;;;2.28;1.77;;;;;;;-145.68;37.40;72258.75;10462703;28;20172;-74
2023/09/29 09:07:45;;;;;;;6.82;2.40;;;;;;;-145.68;36.40;72062.91;10471106;28;20188;-74
2023/09/29 09:12:46;;;;;;;6.80;2.60;;;;;;;-145.68;35.80;72248.75;10471659;28;20702;-75
2023/09/29 09:17:46;;;;;;;4.82;2.20;;;;;;;-145.68;36.36;72260.72;10454646;28;20269;-74
2023/09/29 09:23:02;;;;;;;8.82;2.40;;;;;;;-145.68;35.52;72118.88;10456570;28;20184;-73
2023/09/29 09:28:03;;;;;;;4.88;2.33;;;;;;;-145.68;35.22;72130.84;10474369;28;20559;-73
2023/09/29 09:33:23;;;;;;;3.97;2.00;;;;;;;-145.68;35.20;72164.81;10474280;28;20215;-73
2023/09/29 09:38:31;;;;;;;5.05;2.08;;;;;;;-145.68;35.72;72122.88;10471852;28;20396;-73
2023/09/29 09:43:35;;;;;;;2.85;1.92;;;;;;;-145.68;35.59;72174.81;10482321;28;21039;-73
2023/09/29 09:48:51;;;;;;;3.58;2.03;;;;;;;-145.68;34.41;71989.00;10476890;28;20247;-73
2023/09/29 09:53:52;;;;;;;7.00;2.40;;;;;;;-145.68;35.65;72050.94;10453368;28;20232;-75
2023/09/29 09:58:53;;;;;;;2.75;1.90;;;;;;;-145.68;33.94;71891.09;10469552;28;20242;-74
2023/09/29 10:03:56;;;;;;;3.67;1.83;;;;;;;-145.68;32.32;71733.25;10468753;28;20282;-74
2023/09/29 10:09:00;;;;;;;6.93;1.95;;;;;;;-145.68;34.33;72036.94;10459356;28;20290;-74
2023/09/29 10:14:03;;;;;;;3.08;2.00;;;;;;;-145.68;34.08;72014.97;10447199;28;20215;-74
2023/09/29 10:19:16;;;;;;;3.65;1.77;;;;;;;-145.68;33.97;71825.16;10468726;28;20184;-74
2023/09/29 10:24:27;;;;;;;2.25;1.55;;;;;;;-145.68;33.76;71913.06;10454695;28;20215;-74
2023/09/29 10:29:35;;;;;;;4.10;1.75;;;;;;;-145.68;35.73;72124.88;10467132;28;20298;-74
2023/09/29 10:34:38;;;;;;;2.35;1.75;;;;;;;-145.68;35.45;72044.94;10473854;28;20217;-74
2023/09/29 10:39:39;;;;;;;2.30;1.90;;;;;;;-145.68;35.55;72146.84;10464471;28;20187;-73
2023/09/29 10:44:48;;;;;;;1.95;1.75;;;;;;;-145.68;32.69;71705.28;10449505;28;20180;-74
2023/09/29 10:49:50;;;;;;;2.13;1.90;;;;;;;-145.68;32.85;71749.22;10461799;28;20302;-75
2023/09/29 10:54:56;;;;;;;2.85;1.83;;;;;;;-145.68;36.33;72166.81;10468095;28;20703;-74
2023/09/29 10:59:59;;;;;;;4.72;2.25;;;;;;;-145.68;34.38;72010.97;10468912;28;20194;-74
2023/09/29 11:05:04;;;;;;;3.20;2.03;;;;;;;-145.68;34.21;71953.03;10467573;28;20191;-74
2023/09/29 11:10:11;;;;;;;8.55;2.22;;;;;;;-145.68;32.27;71677.31;10470897;28;20725;-74
2023/09/29 11:15:12;;;;;;;2.58;1.80;;;;;;;-145.68;31.00;71557.44;10469567;28;20187;-74
2023/09/29 11:20:16;;;;;;;2.30;1.90;;;;;;;-145.68;31.68;71721.25;10470031;28;20197;-75
2023/09/29 11:25:20;;;;;;;4.53;1.88;;;;;;;-145.68;31.22;71717.28;10471193;28;20285;-74
2023/09/29 11:30:24;;;;;;;4.65;2.25;;;;;;;-145.68;33.27;72034.94;10471172;28;20292;-74
2023/09/29 11:35:25;;;;;;;2.88;1.63;;;;;;;-145.68;33.69;72052.94;10461131;28;20204;-74
2023/09/29 11:40:26;;;;;;;2.38;1.80;;;;;;;-145.68;34.48;72168.81;10466500;28;20202;-74
2023/09/29 11:45:27;;;;;;;3.30;1.70;;;;;;;-145.68;33.92;72004.97;10471505;28;20192;-74
2023/09/29 11:50:28;;;;;;;2.45;1.88;;;;;;;-145.68;34.02;72026.97;10441055;28;20244;-72
2023/09/29 11:55:29;;;;;;;5.40;3.35;;;;;;;-145.68;36.18;72092.91;10421889;28;20300;-73
2023/09/29 12:00:30;;;;;;;4.47;3.03;;;;;;;-145.68;38.39;72274.72;10422059;28;20191;-73
2023/09/29 12:05:30;;;;;;;5.95;2.78;;;;;;;-145.68;37.49;72258.75;10420261;28;20236;-73
2023/09/29 12:10:31;;;;;;;5.65;2.88;;;;;;;-145.68;36.71;72262.72;10409071;28;20220;-73
2023/09/29 12:15:32;;;;;;;5.32;2.20;;;;;;;-145.68;36.04;72274.72;10417562;28;20243;-72
2023/09/29 12:20:32;;;;;;;5.95;1.95;;;;;;;-145.68;36.23;72300.69;10411955;28;20189;-73
2023/09/29 12:25:33;;;;;;;2.90;2.28;;;;;;;-145.68;36.50;72348.66;10416389;28;20552;-73
2023/09/29 12:30:34;;;;;;;5.00;2.17;;;;;;;-145.68;36.95;72332.66;10415059;28;20217;-74
2023/09/29 12:35:34;;;;;;;2.33;1.70;;;;;;;-145.68;36.09;72332.66;10427809;28;20191;-74
2023/09/29 12:40:37;;;;;;;3.65;1.98;;;;;;;-145.68;36.69;72374.63;10411827;28;20188;-74
2023/09/29 12:45:37;;;;;;;3.17;2.10;;;;;;;-145.68;36.41;72370.63;10421000;28;20246;-74
2023/09/29 12:50:40;;;;;;;2.88;2.47;;;;;;;-145.68;36.31;72394.63;10424807;28;20224;-73
2023/09/29 12:55:41;;;;;;;2.85;2.17;;;;;;;-145.68;37.66;72368.63;10417855;28;20224;-73
2023/09/29 13:00:41;;;;;;;5.40;2.60;;;;;;;-145.68;37.31;72380.63;10419304;28;20549;-73
2023/09/29 13:05:46;;;;;;;3.92;3.35;;;;;;;-145.68;38.63;72452.56;10393694;28;20607;-72
2023/09/29 13:10:49;;;;;;;11.15;5.60;;;;;;;-145.68;43.83;72490.53;10436711;28;20224;-73
2023/09/29 13:15:52;;;;;;;12.07;7.25;;;;;;;-145.68;44.95;72508.50;10403445;28;20189;-73
2023/09/29 13:20:52;;;;;;;12.45;7.80;;;;;;;-145.68;45.34;72516.50;10407544;28;20204;-74
2023/09/29 13:25:53;;;;;;;12.10;7.60;;;;;;;-145.68;45.83;72530.50;10407114;28;20598;-74
2023/09/29 13:30:54;;;;;;;12.65;7.53;;;;;;;-145.68;46.81;72582.44;10407161;28;20285;-73
2023/09/29 13:35:54;;;;;;;10.52;6.88;;;;;;;-145.68;46.35;72538.50;10389226;28;20233;-73
2023/09/29 13:40:55;;;;;;;10.63;6.35;;;;;;;-145.68;45.55;72526.50;10407081;28;20193;-73
2023/09/29 13:45:55;;;;;;;10.57;6.28;;;;;;;-145.68;44.85;72496.53;10408489;28;20216;-73
2023/09/29 13:50:55;;;;;;;8.40;6.03;;;;;;;-145.68;44.87;72472.53;10406668;28;20231;-73
2023/09/29 13:55:56;;;;;;;12.48;6.30;;;;;;;-145.68;44.62;72474.53;10418601;28;20202;-73
2023/09/29 14:00:57;;;;;;;12.30;5.68;;;;;;;-145.68;45.23;72488.53;10423316;28;20200;-73
2023/09/29 14:05:58;;;;;;;11.50;5.72;;;;;;;-145.68;45.27;72496.53;10417987;28;20189;-72
2023/09/29 14:10:58;;;;;;;8.38;5.38;;;;;;;-145.68;44.08;72456.56;10418901;28;20213;-72
2023/09/29 14:15:59;;;;;;;9.77;4.80;;;;;;;-145.68;43.44;72444.56;10419829;28;20208;-73
2023/09/29 14:21:01;;;;;;;6.00;4.20;;;;;;;-145.68;43.09;72420.59;10406235;28;20185;-73
2023/09/29 14:26:02;;;;;;;7.47;4.40;;;;;;;-145.68;41.69;72372.63;10387077;28;20192;-73
2023/09/29 14:31:02;;;;;;;5.97;3.85;;;;;;;-145.68;41.29;72352.66;10404787;28;20660;-73
2023/09/29 14:36:04;;;;;;;8.00;3.65;;;;;;;-145.68;41.39;72368.63;10403774;28;20652;-73
2023/09/29 14:41:09;;;;;;;8.32;3.90;;;;;;;-145.68;41.92;72378.63;10404836;28;20196;-73
2023/09/29 14:46:10;;;;;;;7.80;4.18;;;;;;;-145.68;41.23;72248.75;10403824;28;20201;-73
2023/09/29 14:51:10;;;;;;;6.90;3.83;;;;;;;-145.68;40.44;72172.81;10408100;28;20240;-73
2023/09/29 14:56:15;;;;;;;7.57;3.97;;;;;;;-145.68;40.57;72188.81;10401669;28;20192;-74
2023/09/29 15:01:16;;;;;;;6.35;3.88;;;;;;;-145.68;40.88;72166.81;10401635;28;20600;-73
2023/09/29 15:06:16;;;;;;;6.80;3.75;;;;;;;-145.68;42.12;72252.75;10404030;28;20195;-73
2023/09/29 15:11:18;;;;;;;6.22;3.55;;;;;;;-145.68;42.98;72362.66;10401983;28;20590;-73
2023/09/29 15:16:20;;;;;;;7.82;3.40;;;;;;;-145.68;43.81;72388.63;10402763;28;20192;-73
2023/09/29 15:21:20;;;;;;;11.20;4.47;;;;;;;-145.68;43.68;72424.59;10407243;28;20201;-73
2023/09/29 15:26:27;;;;;;;4.32;3.58;;;;;;;-145.68;44.36;72442.56;10385605;28;20257;-73
2023/09/29 15:31:27;;;;;;;6.45;4.15;;;;;;;-145.68;45.48;72460.56;10403994;28;20224;-73
2023/09/29 15:36:30;;;;;;;7.38;3.90;;;;;;;-145.68;45.05;72466.56;10384285;28;20204;-73
2023/09/29 15:41:31;;;;;;;6.10;3.83;;;;;;;-145.68;45.56;72486.53;10401681;28;20181;-73
2023/09/29 15:46:31;;;;;;;5.05;4.03;;;;;;;-145.68;46.02;72516.50;10407554;28;20193;-73
2023/09/29 15:51:32;;;;;;;5.47;4.13;;;;;;;-145.68;46.96;72524.50;10402496;28;20235;-73
2023/09/29 15:56:32;;;;;;;8.75;4.63;;;;;;;-145.68;47.89;72560.47;10408305;28;20219;-73
2023/09/29 16:01:33;;;;;;;8.43;4.03;;;;;;;-145.68;48.80;72592.44;10411343;28;20201;-73
2023/09/29 16:06:33;;;;;;;8.38;3.92;;;;;;;-145.68;49.68;72630.41;10412705;28;20215;-73
2023/09/29 16:11:34;;;;;;;6.13;4.50;;;;;;;-145.68;50.38;72662.38;10418314;28;20220;-73
2023/09/29 16:16:36;;;;;;;11.27;4.53;;;;;;;-145.68;50.60;72678.38;10418902;28;20196;-73
2023/09/29 16:21:36;;;;;;;7.72;4.70;;;;;;;-145.68;51.71;72730.34;10418142;28;20192;-73
2023/09/29 16:26:37;;;;;;;12.60;4.47;;;;;;;-145.68;52.10;72756.31;10411550;28;20653;-71
2023/09/29 16:31:37;;;;;;;6.22;5.18;;;;;;;-145.68;52.23;72762.31;10410372;28;20231;-72
2023/09/29 16:36:38;;;;;;;14.18;4.75;;;;;;;-145.68;52.51;72776.28;10409582;28;20189;-72
2023/09/29 16:41:38;;;;;;;13.48;4.70;;;;;;;-145.68;52.71;72794.28;10414176;28;20539;-72
2023/09/29 16:46:39;;;;;;;5.97;4.25;;;;;;;-145.68;53.11;72810.28;10436766;28;20184;-72
2023/09/29 16:51:39;;;;;;;10.43;4.97;;;;;;;-145.68;53.56;72830.25;10413662;28;20260;-71
2023/09/29 16:56:41;;;;;;;7.68;4.50;;;;;;;-145.68;53.22;72820.25;10411283;28;20212;-72
2023/09/29 17:01:42;;;;;;;10.07;4.78;;;;;;;-145.68;53.64;72832.25;10410166;28;20188;-71
2023/09/29 17:06:42;;;;;;;6.43;4.25;;;;;;;-145.68;53.87;72844.25;10409565;28;20192;-71
2023/09/29 17:11:44;;;;;;;6.03;4.47;;;;;;;-145.68;54.21;72870.22;10419222;28;20215;-72
2023/09/29 17:16:45;;;;;;;12.50;4.55;;;;;;;-145.68;55.01;72862.22;10426926;28;20196;-71
2023/09/29 17:21:46;;;;;;;9.10;4.80;;;;;;;-145.68;55.43;72880.22;10407992;28;20188;-72
2023/09/29 17:26:47;;;;;;;9.73;4.90;;;;;;;-145.68;56.01;72906.19;10407632;28;20199;-72
2023/09/29 17:31:48;;;;;;;9.35;4.95;;;;;;;-145.68;55.02;72900.19;10407560;28;20956;-71
2023/09/29 17:36:49;;;;;;;8.82;4.40;;;;;;;-145.68;55.31;72908.19;10390139;28;20185;-71
2023/09/29 17:41:49;;;;;;;12.65;5.10;;;;;;;-145.68;55.13;72912.19;10415695;28;20628;-72
2023/09/29 17:46:49;;;;;;;11.32;5.50;;;;;;;-145.68;55.02;72914.19;10419203;28;20201;-71
2023/09/29 17:51:50;;;;;;;5.75;4.72;;;;;;;-145.68;54.81;72908.19;10416699;28;20610;-71
2023/09/29 17:56:50;;;;;;;7.53;4.70;;;;;;;-145.68;54.66;72912.19;10406559;28;20200;-72
2023/09/29 18:01:51;;;;;;;8.25;4.63;;;;;;;-145.68;54.93;72924.19;10405644;28;20270;-72
2023/09/29 18:06:51;;;;;;;9.85;5.10;;;;;;;-145.68;55.02;72934.19;10417765;28;20549;-72
2023/09/29 18:11:52;;;;;;;7.93;4.85;;;;;;;-145.68;55.08;72946.16;10419534;28;20188;-72
2023/09/29 18:16:52;;;;;;;10.23;4.28;;;;;;;-145.68;54.35;72932.19;10373840;28;20216;-71
2023/09/29 18:21:52;;;;;;;7.72;4.90;;;;;;;-145.68;54.54;72938.16;10407480;28;20224;-71
2023/09/29 18:26:53;;;;;;;8.70;4.35;;;;;;;-145.68;54.64;72944.16;10405758;28;20258;-72
2023/09/29 18:31:54;;;;;;;5.93;4.45;;;;;;;-145.68;53.99;72940.16;10370868;28;20195;-72
2023/09/29 18:36:54;;;;;;;5.43;4.13;;;;;;;-145.68;53.86;72936.19;10405082;28;20250;-72
2023/09/29 18:41:55;;;;;;;6.32;4.07;;;;;;;-145.68;53.42;72934.19;10407871;28;20968;-72
2023/09/29 18:46:55;;;;;;;5.15;3.78;;;;;;;-145.68;53.18;72936.19;10406251;28;20203;-72
2023/09/29 18:51:59;;;;;;;5.32;3.72;;;;;;;-145.68;52.76;72934.19;10405416;28;20192;-72
2023/09/29 18:56:59;;;;;;;5.03;3.70;;;;;;;-145.68;52.98;72934.19;10408037;28;20197;-72
2023/09/29 19:02:00;;;;;;;6.55;3.60;;;;;;;-145.68;53.33;72950.16;10400055;28;20699;-72
2023/09/29 19:07:01;;;;;;;4.25;3.83;;;;;;;-145.68;53.29;72964.16;10403954;28;20201;-72
2023/09/29 19:12:02;;;;;;;6.25;4.13;;;;;;;-145.68;54.06;72996.13;10386059;28;20558;-72
2023/09/29 19:17:03;;;;;;;5.60;3.92;;;;;;;-145.68;53.68;72976.16;10403023;28;20185;-72
2023/09/29 19:22:03;;;;;;;7.78;3.85;;;;;;;-145.68;53.96;72992.13;10403898;28;20212;-72
2023/09/29 19:27:03;;;;;;;4.97;3.60;;;;;;;-145.68;53.45;72966.16;10385578;28;20560;-72
2023/09/29 19:32:04;;;;;;;5.38;3.90;;;;;;;-145.68;53.24;72952.16;10403289;28;20250;-72
2023/09/29 19:37:04;;;;;;;7.47;3.63;;;;;;;-145.68;53.02;72952.16;10402958;28;20196;-72
2023/09/29 19:42:05;;;;;;;8.70;3.45;;;;;;;-145.68;53.36;72968.16;10412379;28;20571;-72
2023/09/29 19:47:05;;;;;;;4.45;3.60;;;;;;;-145.68;53.21;72964.16;10417906;28;20219;-72
2023/09/29 19:52:06;;;;;;;9.95;3.58;;;;;;;-145.68;53.14;72960.16;10415644;28;20195;-72
2023/09/29 19:57:07;;;;;;;10.15;3.30;;;;;;;-145.68;53.41;72978.16;10410658;28;20926;-72
2023/09/29 20:02:08;;;;;;;4.47;3.70;;;;;;;-145.68;53.68;72972.16;10425818;28;20215;-72
2023/09/29 20:07:08;;;;;;;5.93;3.72;;;;;;;-145.68;54.79;73022.13;10425639;28;20188;-72
2023/09/29 20:12:09;;;;;;;4.38;3.47;;;;;;;-145.68;55.26;73028.09;10417932;28;20247;-72
2023/09/29 20:17:24;;;;;;;13.13;7.32;;;;;;;-145.68;55.09;73024.13;10409445;28;20188;-72
2023/09/29 20:22:24;;;;;;;7.65;4.80;;;;;;;-145.68;55.98;73038.09;10411588;28;20577;-72
2023/09/29 20:27:25;;;;;;;7.55;4.20;;;;;;;-145.68;56.63;73074.06;10410684;28;20195;-72
2023/09/29 20:32:25;;;;;;;8.45;4.30;;;;;;;-145.68;56.58;73062.09;10410809;28;20277;-73
2023/09/29 20:37:26;;;;;;;7.30;3.63;;;;;;;-145.68;56.65;73052.09;10410248;28;20219;-72
2023/09/29 20:42:26;;;;;;;7.65;3.58;;;;;;;-145.68;56.96;73064.09;10410618;28;20216;-72
2023/09/29 20:47:26;;;;;;;4.88;3.67;;;;;;;-145.68;57.20;73068.06;10410150;28;20655;-72
2023/09/29 20:52:27;;;;;;;6.18;3.70;;;;;;;-145.68;57.75;73056.09;10409484;28;20200;-73
2023/09/29 20:57:28;;;;;;;6.25;3.38;;;;;;;-145.68;57.16;73040.09;10409638;28;20196;-72
2023/09/29 21:02:29;;;;;;;4.80;3.35;;;;;;;-145.68;57.87;73056.09;10410225;28;20222;-73
2023/09/29 21:07:29;;;;;;;7.43;3.72;;;;;;;-145.68;57.10;72986.13;10409470;28;20203;-72
2023/09/29 21:12:30;;;;;;;7.13;4.10;;;;;;;-145.68;57.22;72988.13;10409586;28;20196;-72
2023/09/29 21:17:30;;;;;;;7.70;3.90;;;;;;;-145.68;57.13;72988.13;10391619;28;20193;-72
2023/09/29 21:22:31;;;;;;;4.25;3.42;;;;;;;-145.68;57.51;73010.13;10409331;28;20263;-72
2023/09/29 21:27:31;;;;;;;5.80;3.63;;;;;;;-145.68;56.88;72996.13;10390777;28;20199;-72
2023/09/29 21:32:32;;;;;;;5.88;3.78;;;;;;;-145.68;57.46;73010.13;10390265;28;20189;-72
2023/09/29 21:37:32;;;;;;;5.45;3.92;;;;;;;-145.68;57.12;73000.13;10408165;28;20193;-72
2023/09/29 21:42:33;;;;;;;6.72;3.80;;;;;;;-145.68;57.39;73000.13;10408252;28;20672;-72
2023/09/29 21:47:33;;;;;;;6.50;3.90;;;;;;;-145.68;57.45;73024.13;10408024;28;20248;-73
2023/09/29 21:52:34;;;;;;;7.50;4.10;;;;;;;-145.68;57.56;73030.09;10390372;28;20698;-73
2023/09/29 21:57:34;;;;;;;8.52;4.68;;;;;;;-145.68;58.53;73062.09;10407870;28;20236;-72
2023/09/29 22:02:35;;;;;;;6.20;4.53;;;;;;;-145.68;59.18;73056.09;10410678;28;20212;-72
2023/09/29 22:07:36;;;;;;;7.57;5.15;;;;;;;-145.68;58.96;73054.09;10390313;28;20207;-73
2023/09/29 22:12:36;;;;;;;6.50;4.47;;;;;;;-145.68;59.67;73076.06;10409071;28;20186;-72
2023/09/29 22:17:37;;;;;;;8.52;4.53;;;;;;;-145.68;59.81;73082.06;10408282;28;20188;-72
2023/09/29 22:22:38;;;;;;;6.35;4.43;;;;;;;-145.68;60.36;73104.06;10409120;28;20209;-73
2023/09/29 22:27:39;;;;;;;8.32;4.82;;;;;;;-145.68;60.68;73098.06;10409096;28;20193;-73
2023/09/29 22:32:39;;;;;;;11.10;5.60;;;;;;;-145.68;61.11;73100.06;10408614;28;20211;-72
2023/09/29 22:37:40;;;;;;;12.07;6.00;;;;;;;-145.68;62.20;73132.03;10407105;28;20228;-72
2023/09/29 22:42:42;;;;;;;13.98;6.72;;;;;;;-145.68;63.64;73156.00;10406061;28;20220;-73